createdAt,value
2019-06-07T00:00:41.350Z,99997.00
2019-06-07T00:03:21.449Z,99996.00
2019-06-07T00:05:42.518Z,100004.00
2019-06-07T00:08:21.314Z,99999.00
2019-06-07T00:10:44.215Z,100005.00
2019-06-07T00:13:17.113Z,100010.00
2019-06-07T00:15:43.746Z,100012.00
2019-06-07T00:18:14.917Z,100008.00
2019-06-07T00:20:42.943Z,100015.00
2019-06-07T00:23:14.769Z,100014.00
2019-06-07T00:25:42.471Z,100002.00
2019-06-07T00:28:10.848Z,100006.00
2019-06-07T00:30:50.670Z,99999.00
2019-06-07T00:33:15.195Z,100000.00
2019-06-07T00:35:41.178Z,100003.00
2019-06-07T00:38:09.700Z,100014.00
2019-06-07T00:40:38.625Z,100008.00
2019-06-07T00:43:07.574Z,100017.00
2019-06-07T00:45:36.599Z,100010.00
2019-06-07T00:48:05.588Z,100022.00
2019-06-07T00:50:35.568Z,100013.00
2019-06-07T00:53:17.164Z,100012.00
2019-06-07T00:55:34.512Z,100017.00
2019-06-07T00:58:03.459Z,100015.00
2019-06-07T01:00:33.041Z,100015.00
2019-06-07T01:03:03.158Z,100012.00
2019-06-07T01:05:32.239Z,100020.00
2019-06-07T01:08:03.907Z,100021.00
2019-06-07T01:10:52.262Z,100031.00
2019-06-07T01:13:05.126Z,100036.00
2019-06-07T01:15:33.722Z,100032.00
2019-06-07T01:20:32.816Z,100025.00
2019-06-07T01:23:01.307Z,100021.00
2019-06-07T01:25:29.746Z,100035.00
2019-06-07T01:27:59.644Z,100024.00
2019-06-07T01:30:29.261Z,100023.00
2019-06-07T01:32:58.663Z,100024.00
2019-06-07T01:35:29.687Z,100023.00
2019-06-07T01:37:57.640Z,100023.00
2019-06-07T01:40:31.843Z,100026.00
2019-06-07T01:42:57.034Z,100022.00
2019-06-07T01:45:30.667Z,100030.00
2019-06-07T01:47:56.599Z,100026.00
2019-06-07T01:50:27.160Z,100032.00
2019-06-07T01:52:57.571Z,100031.00
2019-06-07T01:55:28.854Z,100032.00
2019-06-07T01:57:56.806Z,100029.00
2019-06-07T02:00:26.572Z,100017.00
2019-06-07T02:02:56.286Z,100021.00
2019-06-07T02:05:29.914Z,100021.00
2019-06-07T02:07:55.359Z,100018.00
2019-06-07T02:10:27.872Z,100023.00
2019-06-07T02:12:56.897Z,100016.00
2019-06-07T02:15:28.766Z,100012.00
2019-06-07T02:17:56.075Z,100019.00
2019-06-07T02:20:27.543Z,100014.00
2019-06-07T02:22:55.267Z,100013.00
2019-06-07T02:25:48.746Z,100005.00
2019-06-07T02:28:11.110Z,100014.00
2019-06-07T02:30:40.488Z,100015.00
2019-06-07T02:32:55.291Z,100020.00
2019-06-07T02:35:30.905Z,100030.00
2019-06-07T02:37:54.452Z,100024.00
2019-06-07T02:40:24.541Z,100025.00
2019-06-07T02:42:54.630Z,100024.00
2019-06-07T02:45:24.790Z,100027.00
2019-06-07T02:47:54.356Z,100028.00
2019-06-07T02:50:23.217Z,100021.00
2019-06-07T02:52:52.154Z,100028.00
2019-06-07T02:55:21.144Z,100023.00
2019-06-07T02:57:49.803Z,100035.00
2019-06-07T03:01:07.084Z,100036.00
2019-06-07T03:03:29.936Z,100044.00
2019-06-07T03:05:57.854Z,100036.00
2019-06-07T03:08:30.819Z,100026.00
2019-06-07T03:11:02.761Z,100027.00
2019-06-07T03:13:37.633Z,100032.00
2019-06-07T03:16:09.620Z,100027.00
2019-06-07T03:19:05.735Z,100041.00
2019-06-07T03:21:41.731Z,100046.00
2019-06-07T03:24:08.997Z,100051.00
2019-06-07T03:27:29.160Z,100040.00
2019-06-07T03:29:09.746Z,100040.00
2019-06-07T03:31:46.366Z,100053.00
2019-06-07T03:34:08.288Z,100052.00
2019-06-07T03:36:40.060Z,100041.00
2019-06-07T03:39:07.386Z,100048.00
2019-06-07T03:41:43.762Z,100049.00
2019-06-07T03:44:06.964Z,100056.00
2019-06-07T03:46:38.938Z,100055.00
2019-06-07T03:49:06.431Z,100061.00
2019-06-07T03:51:39.339Z,100061.00
2019-06-07T03:54:05.579Z,100060.00
2019-06-07T03:56:37.962Z,100062.00
2019-06-07T03:59:06.455Z,100070.00
2019-06-07T04:01:37.750Z,100077.00
2019-06-07T04:04:05.636Z,100075.00
2019-06-07T04:06:36.824Z,100067.00
2019-06-07T04:09:06.721Z,100081.00
2019-06-07T04:11:40.797Z,100083.00
2019-06-07T04:14:11.465Z,100082.00
2019-06-07T04:16:43.637Z,100083.00
2019-06-07T04:19:10.384Z,100081.00
2019-06-07T04:21:42.532Z,100077.00
2019-06-07T04:24:09.897Z,100093.00
2019-06-07T04:26:43.146Z,100092.00
2019-06-07T04:29:32.383Z,100085.00
2019-06-07T04:31:42.834Z,100092.00
2019-06-07T04:34:09.765Z,100083.00
2019-06-07T04:36:55.815Z,100088.00
2019-06-07T04:39:11.275Z,100088.00
2019-06-07T04:41:42.585Z,100086.00
2019-06-07T04:44:13.715Z,100083.00
2019-06-07T04:46:46.762Z,100094.00
2019-06-07T04:49:18.655Z,100093.00
2019-06-07T04:51:49.252Z,100091.00
2019-06-07T04:54:18.316Z,100094.00
2019-06-07T04:56:47.048Z,100097.00
2019-06-07T05:00:00.249Z,100101.00
2019-06-07T05:01:46.918Z,100094.00
2019-06-07T05:04:15.753Z,100087.00
2019-06-07T05:06:44.342Z,100092.00
2019-06-07T05:09:12.817Z,100097.00
2019-06-07T05:11:44.751Z,100095.00
2019-06-07T05:14:15.379Z,100097.00
2019-06-07T05:16:44.582Z,100095.00
2019-06-07T05:19:13.287Z,100091.00
2019-06-07T05:22:01.550Z,100099.00
2019-06-07T05:24:12.146Z,100106.00
2019-06-07T05:26:42.860Z,100105.00
2019-06-07T05:29:10.898Z,100112.00
2019-06-07T05:31:44.940Z,100107.00
2019-06-07T05:34:11.308Z,100114.00
2019-06-07T05:36:44.298Z,100115.00
2019-06-07T05:39:10.120Z,100106.00
2019-06-07T05:41:41.179Z,100116.00
2019-06-07T05:44:13.039Z,100114.00
2019-06-07T05:46:41.967Z,100110.00
2019-06-07T05:49:10.987Z,100106.00
2019-06-07T05:51:41.953Z,100108.00
2019-06-07T05:54:10.310Z,100108.00
2019-06-07T05:56:41.164Z,100112.00
2019-06-07T05:59:11.978Z,100104.00
2019-06-07T06:01:47.924Z,100104.00
2019-06-07T06:04:10.897Z,100112.00
2019-06-07T06:06:43.156Z,100112.00
2019-06-07T06:09:13.760Z,100109.00
2019-06-07T06:11:52.442Z,100111.00
2019-06-07T06:14:12.592Z,100112.00
2019-06-07T06:16:46.965Z,100112.00
2019-06-07T06:19:13.712Z,100110.00
2019-06-07T06:21:46.022Z,100108.00
2019-06-07T06:24:13.030Z,100117.00
2019-06-07T06:26:48.335Z,100115.00
2019-06-07T06:29:12.556Z,100109.00
2019-06-07T06:32:02.520Z,100105.00
2019-06-07T06:34:11.287Z,100102.00
2019-06-07T06:36:43.881Z,100115.00
2019-06-07T06:39:11.471Z,100116.00
2019-06-07T06:41:50.821Z,100120.00
2019-06-07T06:44:10.897Z,100115.00
2019-06-07T06:46:44.799Z,100113.00
2019-06-07T06:49:10.110Z,100116.00
2019-06-07T06:51:39.299Z,100121.00
2019-06-07T06:54:08.889Z,100113.00
2019-06-07T06:56:37.662Z,100110.00
2019-06-07T06:59:37.558Z,100112.00
2019-06-07T07:01:37.382Z,100111.00
2019-06-07T07:04:12.831Z,100115.00
2019-06-07T07:06:36.351Z,100108.00
2019-06-07T07:09:06.539Z,100110.00
2019-06-07T07:11:52.302Z,100111.00
2019-06-07T07:14:06.679Z,100111.00
2019-06-07T07:16:37.038Z,100115.00
2019-06-07T07:19:07.439Z,100115.00
2019-06-07T07:21:36.122Z,100114.00
2019-06-07T07:24:21.124Z,100111.00
2019-06-07T07:26:35.906Z,100113.00
2019-06-07T07:29:04.786Z,100109.00
2019-06-07T07:31:33.550Z,100103.00
2019-06-07T07:36:39.329Z,100113.00
2019-06-07T07:39:06.878Z,100120.00
2019-06-07T07:41:35.534Z,100120.00
2019-06-07T07:44:07.607Z,100123.00
2019-06-07T07:46:35.580Z,100128.00
2019-06-07T07:49:04.209Z,100137.00
2019-06-07T07:51:32.901Z,100131.00
2019-06-07T07:54:10.481Z,100140.00
2019-06-07T07:56:32.157Z,100136.00
2019-06-07T07:59:02.299Z,100140.00
2019-06-07T08:01:31.082Z,100135.00
2019-06-07T08:04:00.991Z,100137.00
2019-06-07T08:06:29.993Z,100143.00
2019-06-07T08:08:59.131Z,100146.00
2019-06-07T08:11:27.939Z,100145.00
2019-06-07T08:13:58.925Z,100146.00
2019-06-07T08:16:27.829Z,100146.00
2019-06-07T08:19:04.198Z,100147.00
2019-06-07T08:21:32.271Z,100154.00
2019-06-07T08:24:04.664Z,100148.00
2019-06-07T08:26:31.821Z,100162.00
2019-06-07T08:29:03.147Z,100165.00
2019-06-07T08:31:31.940Z,100173.00
2019-06-07T08:34:01.764Z,100173.00
2019-06-07T08:36:41.872Z,100177.00
2019-06-07T08:39:07.158Z,100175.00
2019-06-07T08:41:32.172Z,100181.00
2019-06-07T08:44:21.830Z,100173.00
2019-06-07T08:46:31.711Z,100178.00
2019-06-07T08:49:04.279Z,100173.00
2019-06-07T08:51:31.225Z,100169.00
2019-06-07T08:54:20.629Z,100177.00
2019-06-07T08:56:30.466Z,100181.00
2019-06-07T08:59:03.004Z,100179.00
2019-06-07T09:01:30.095Z,100172.00
2019-06-07T09:04:02.827Z,100179.00
2019-06-07T09:09:03.572Z,100177.00
2019-06-07T09:11:31.807Z,100186.00
2019-06-07T09:14:04.880Z,100184.00
2019-06-07T09:16:30.831Z,100177.00
2019-06-07T09:19:04.008Z,100195.00
2019-06-07T09:21:33.948Z,100188.00
2019-06-07T09:24:09.059Z,100177.00
2019-06-07T09:26:33.727Z,100205.00
2019-06-07T09:29:07.089Z,100183.00
2019-06-07T09:31:52.062Z,100190.00
2019-06-07T09:34:13.697Z,100200.00
2019-06-07T09:36:35.353Z,100191.00
2019-06-07T09:39:08.306Z,100186.00
2019-06-07T09:41:47.584Z,100193.00
2019-06-07T09:44:21.575Z,100197.00
2019-06-07T09:46:37.688Z,100197.00
2019-06-07T09:49:18.275Z,100181.00
2019-06-07T09:51:38.167Z,100188.00
2019-06-07T09:54:10.796Z,100194.00
2019-06-07T09:56:37.938Z,100188.00
2019-06-07T09:59:12.156Z,100196.00
2019-06-07T10:01:37.068Z,100195.00
2019-06-07T10:04:09.083Z,100192.00
2019-06-07T10:06:37.271Z,100190.00
2019-06-07T10:11:38.027Z,100207.00
2019-06-07T10:14:07.025Z,100191.00
2019-06-07T10:16:46.305Z,100191.00
2019-06-07T10:19:09.749Z,100199.00
2019-06-07T10:21:40.607Z,100199.00
2019-06-07T10:24:09.755Z,100185.00
2019-06-07T10:26:38.471Z,100188.00
2019-06-07T10:29:08.677Z,100193.00
2019-06-07T10:31:37.963Z,100196.00
2019-06-07T10:34:06.735Z,100190.00
2019-06-07T10:36:35.658Z,100185.00
2019-06-07T10:39:06.979Z,100181.00
2019-06-07T10:41:35.497Z,100183.00
2019-06-07T10:44:05.565Z,100216.00
2019-06-07T10:46:35.056Z,100193.00
2019-06-07T10:49:05.998Z,100187.00
2019-06-07T10:51:34.702Z,100188.00
2019-06-07T10:54:15.404Z,100180.00
2019-06-07T10:56:34.991Z,100184.00
2019-06-07T10:59:05.207Z,100174.00
2019-06-07T11:01:33.928Z,100180.00
2019-06-07T11:04:03.382Z,100178.00
2019-06-07T11:06:32.161Z,100188.00
2019-06-07T11:09:00.920Z,100176.00
2019-06-07T11:11:30.019Z,100176.00
2019-06-07T11:13:58.827Z,100166.00
2019-06-07T11:16:28.597Z,100156.00
2019-06-07T11:18:57.191Z,100158.00
2019-06-07T11:21:27.113Z,100164.00
2019-06-07T11:23:57.500Z,100164.00
2019-06-07T11:26:26.929Z,100164.00
2019-06-07T11:28:55.318Z,100161.00
2019-06-07T11:31:23.704Z,100179.00
2019-06-07T11:33:52.646Z,100174.00
2019-06-07T11:36:21.948Z,100167.00
2019-06-07T11:38:50.464Z,100183.00
2019-06-07T11:41:19.343Z,100178.00
2019-06-07T11:43:49.365Z,100163.00
2019-06-07T11:46:17.943Z,100159.00
2019-06-07T11:48:46.690Z,100167.00
2019-06-07T11:51:15.481Z,100169.00
2019-06-07T11:53:44.334Z,100163.00
2019-06-07T11:56:14.003Z,100164.00
2019-06-07T11:58:43.088Z,100150.00
2019-06-07T12:01:12.385Z,100149.00
2019-06-07T12:03:42.444Z,100155.00
2019-06-07T12:06:12.044Z,100161.00
2019-06-07T12:08:40.749Z,100150.00
2019-06-07T12:11:10.635Z,100149.00
2019-06-07T12:13:39.070Z,100163.00
2019-06-07T12:16:09.030Z,100150.00
2019-06-07T12:18:39.462Z,100142.00
2019-06-07T12:21:09.584Z,100137.00
2019-06-07T12:23:38.789Z,100129.00
2019-06-07T12:26:10.257Z,100135.00
2019-06-07T12:28:38.955Z,100135.00
2019-06-07T12:31:07.811Z,100138.00
2019-06-07T12:33:36.819Z,100138.00
2019-06-07T12:36:06.031Z,100131.00
2019-06-07T12:38:34.525Z,100127.00
2019-06-07T12:41:03.521Z,100130.00
2019-06-07T12:43:31.806Z,100123.00
2019-06-07T12:46:01.972Z,100130.00
2019-06-07T12:48:30.830Z,100115.00
2019-06-07T12:50:59.197Z,100111.00
2019-06-07T12:53:28.340Z,100120.00
2019-06-07T12:56:00.040Z,100123.00
2019-06-07T12:58:34.660Z,100111.00
2019-06-07T13:00:59.850Z,100111.00
2019-06-07T13:03:30.002Z,100115.00
2019-06-07T13:05:58.609Z,100118.00
2019-06-07T13:08:28.204Z,100123.00
2019-06-07T13:11:13.601Z,100114.00
2019-06-07T13:13:28.450Z,100115.00
2019-06-07T13:15:57.499Z,100105.00
2019-06-07T13:18:26.082Z,100116.00
2019-06-07T13:20:55.651Z,100114.00
2019-06-07T13:23:24.715Z,100109.00
2019-06-07T13:25:53.677Z,100101.00
2019-06-07T13:28:24.833Z,100103.00
2019-06-07T13:30:53.700Z,100099.00
2019-06-07T13:33:23.737Z,100104.00
2019-06-07T13:35:53.710Z,100109.00
2019-06-07T13:38:25.997Z,100103.00
2019-06-07T13:40:57.489Z,100105.00
2019-06-07T13:43:28.006Z,100105.00
2019-06-07T13:45:56.714Z,100107.00
2019-06-07T13:48:25.771Z,100106.00
2019-06-07T13:50:54.373Z,100103.00
2019-06-07T13:53:22.949Z,100104.00
2019-06-07T13:55:51.391Z,100103.00
2019-06-07T13:58:21.307Z,100099.00
2019-06-07T14:00:51.326Z,100097.00
2019-06-07T14:03:23.834Z,100100.00
2019-06-07T14:05:50.549Z,100099.00
2019-06-07T14:08:19.103Z,100098.00
2019-06-07T14:10:47.900Z,100107.00
2019-06-07T14:13:16.838Z,100104.00
2019-06-07T14:15:45.834Z,100097.00
2019-06-07T14:18:14.419Z,100102.00
2019-06-07T14:20:43.237Z,100111.00
2019-06-07T14:23:12.527Z,100106.00
2019-06-07T14:25:42.290Z,100120.00
2019-06-07T14:28:12.407Z,100119.00
2019-06-07T14:30:43.021Z,100108.00
2019-06-07T14:33:12.972Z,100108.00
2019-06-07T14:35:41.561Z,100105.00
2019-06-07T14:38:10.240Z,100099.00
2019-06-07T14:40:38.887Z,100099.00
2019-06-07T14:43:07.610Z,100110.00
2019-06-07T14:45:36.276Z,100104.00
2019-06-07T14:48:05.194Z,100102.00
2019-06-07T14:50:34.519Z,100105.00
2019-06-07T14:53:03.343Z,100114.00
2019-06-07T14:55:32.954Z,100099.00
2019-06-07T14:58:02.190Z,100115.00
2019-06-07T15:00:48.637Z,100112.00
2019-06-07T15:03:17.672Z,100120.00
2019-06-07T15:05:46.385Z,100117.00
2019-06-07T15:08:15.041Z,100111.00
2019-06-07T15:10:43.729Z,100116.00
2019-06-07T15:13:12.238Z,100118.00
2019-06-07T15:15:40.790Z,100116.00
2019-06-07T15:18:11.093Z,100120.00
2019-06-07T15:20:39.502Z,100126.00
2019-06-07T15:23:08.219Z,100130.00
2019-06-07T15:25:36.713Z,100130.00
2019-06-07T15:28:05.867Z,100137.00
2019-06-07T15:30:36.307Z,100135.00
2019-06-07T15:33:06.863Z,100143.00
2019-06-07T15:35:37.400Z,100141.00
2019-06-07T15:38:05.952Z,100142.00
2019-06-07T15:40:35.240Z,100136.00
2019-06-07T15:43:04.004Z,100134.00
2019-06-07T15:45:33.662Z,100131.00
2019-06-07T15:48:02.589Z,100134.00
2019-06-07T15:50:32.185Z,100137.00
2019-06-07T15:53:02.136Z,100139.00
2019-06-07T15:55:35.080Z,100138.00
2019-06-07T15:58:01.955Z,100139.00
2019-06-07T16:00:31.363Z,100142.00
2019-06-07T16:03:00.173Z,100147.00
2019-06-07T16:05:31.762Z,100147.00
2019-06-07T16:08:00.687Z,100146.00
2019-06-07T16:10:30.294Z,100148.00
2019-06-07T16:15:28.360Z,100150.00
2019-06-07T16:17:57.348Z,100152.00
2019-06-07T16:20:26.211Z,100155.00
2019-06-07T16:22:54.660Z,100157.00
2019-06-07T16:25:23.762Z,100160.00
2019-06-07T16:27:53.910Z,100164.00
2019-06-07T16:30:23.091Z,100159.00
2019-06-07T16:32:52.960Z,100161.00
2019-06-07T16:35:23.925Z,100165.00
2019-06-07T16:37:52.743Z,100172.00
2019-06-07T16:40:21.972Z,100169.00
2019-06-07T16:42:51.021Z,100172.00
2019-06-07T16:45:21.169Z,100172.00
2019-06-07T16:47:49.871Z,100170.00
2019-06-07T16:50:20.153Z,100170.00
2019-06-07T16:52:48.753Z,100175.00
2019-06-07T16:55:19.143Z,100170.00
2019-06-07T16:57:49.091Z,100168.00
2019-06-07T17:00:18.925Z,100162.00
2019-06-07T17:02:48.834Z,100159.00
2019-06-07T17:05:18.865Z,100159.00
2019-06-07T17:07:48.911Z,100158.00
2019-06-07T17:10:17.763Z,100168.00
2019-06-07T17:12:46.997Z,100166.00
2019-06-07T17:15:18.532Z,100167.00
2019-06-07T17:17:47.177Z,100163.00
2019-06-07T17:20:16.740Z,100166.00
2019-06-07T17:22:47.343Z,100170.00
2019-06-07T17:25:17.392Z,100169.00
2019-06-07T17:27:46.478Z,100162.00
2019-06-07T17:30:17.722Z,100171.00
2019-06-07T17:32:56.239Z,100169.00
2019-06-07T17:35:19.210Z,100176.00
2019-06-07T17:37:51.481Z,100173.00
2019-06-07T17:40:20.884Z,100183.00
2019-06-07T17:42:50.954Z,100179.00
2019-06-07T17:45:19.730Z,100186.00
2019-06-07T17:47:49.852Z,100185.00
2019-06-07T17:50:19.307Z,100187.00
2019-06-07T17:52:48.027Z,100190.00
2019-06-07T17:55:17.735Z,100190.00
2019-06-07T17:57:46.621Z,100197.00
2019-06-07T18:00:33.753Z,100194.00
2019-06-07T18:02:48.800Z,100195.00
2019-06-07T18:05:18.383Z,100192.00
2019-06-07T18:07:50.127Z,100186.00
2019-06-07T18:10:36.632Z,100190.00
2019-06-07T18:13:05.792Z,100186.00
2019-06-07T18:15:40.582Z,100188.00
2019-06-07T18:18:10.826Z,100193.00
2019-06-07T18:20:39.023Z,100189.00
2019-06-07T18:23:09.302Z,100191.00
2019-06-07T18:25:38.084Z,100199.00
2019-06-07T18:28:07.356Z,100193.00
2019-06-07T18:30:38.565Z,100194.00
2019-06-07T18:33:07.703Z,100191.00
2019-06-07T18:35:38.364Z,100198.00
2019-06-07T18:38:10.846Z,100197.00
2019-06-07T18:40:40.087Z,100199.00
2019-06-07T18:43:09.181Z,100198.00
2019-06-07T18:45:37.835Z,100198.00
2019-06-07T18:48:06.987Z,100196.00
2019-06-07T18:50:36.079Z,100200.00
2019-06-07T18:53:04.681Z,100193.00
2019-06-07T18:55:33.345Z,100201.00
2019-06-07T18:58:02.382Z,100208.00
2019-06-07T19:00:32.937Z,100203.00
2019-06-07T19:03:02.281Z,100209.00
2019-06-07T19:05:30.707Z,100212.00
2019-06-07T19:08:00.021Z,100208.00
2019-06-07T19:10:30.183Z,100219.00
2019-06-07T19:13:00.489Z,100216.00
2019-06-07T19:15:30.025Z,100218.00
2019-06-07T19:17:58.683Z,100222.00
2019-06-07T19:20:28.267Z,100227.00
2019-06-07T19:22:58.213Z,100231.00
2019-06-07T19:25:28.971Z,100234.00
2019-06-07T19:27:59.008Z,100227.00
2019-06-07T19:30:27.919Z,100233.00
2019-06-07T19:32:57.324Z,100227.00
2019-06-07T19:35:26.000Z,100228.00
2019-06-07T19:37:57.510Z,100233.00
2019-06-07T19:40:28.520Z,100232.00
2019-06-07T19:42:58.381Z,100226.00
2019-06-07T19:45:30.683Z,100231.00
2019-06-07T19:47:58.623Z,100237.00
2019-06-07T19:50:27.732Z,100234.00
2019-06-07T19:52:57.074Z,100231.00
2019-06-07T19:55:26.197Z,100229.00
2019-06-07T19:57:55.502Z,100228.00
2019-06-07T20:00:24.969Z,100223.00
2019-06-07T20:02:53.763Z,100219.00
2019-06-07T20:05:22.509Z,100218.00
2019-06-07T20:07:50.885Z,100211.00
2019-06-07T20:10:19.978Z,100217.00
2019-06-07T20:12:49.217Z,100216.00
2019-06-07T20:15:28.361Z,100213.00
2019-06-07T20:17:49.192Z,100228.00
2019-06-07T20:20:23.963Z,100222.00
2019-06-07T20:22:52.877Z,100221.00
2019-06-07T20:25:22.808Z,100226.00
2019-06-07T20:27:53.749Z,100225.00
2019-06-07T20:30:23.084Z,100225.00
2019-06-07T20:32:51.815Z,100216.00
2019-06-07T20:35:20.912Z,100218.00
2019-06-07T20:37:50.682Z,100219.00
2019-06-07T20:40:24.791Z,100217.00
2019-06-07T20:42:57.753Z,100225.00
2019-06-07T20:45:34.001Z,100223.00
2019-06-07T20:48:06.171Z,100224.00
2019-06-07T20:50:37.287Z,100218.00
2019-06-07T20:53:10.179Z,100216.00
2019-06-07T20:55:42.886Z,100215.00
2019-06-07T20:58:11.517Z,100212.00
2019-06-07T21:00:44.213Z,100215.00
2019-06-07T21:03:13.116Z,100216.00
2019-06-07T21:05:41.683Z,100214.00
2019-06-07T21:08:12.799Z,100215.00
2019-06-07T21:10:41.111Z,100215.00
2019-06-07T21:13:10.240Z,100215.00
2019-06-07T21:15:48.431Z,100213.00
2019-06-07T21:18:19.137Z,100221.00
2019-06-07T21:20:41.382Z,100218.00
2019-06-07T21:23:12.014Z,100219.00
2019-06-07T21:25:40.798Z,100218.00
2019-06-07T21:28:11.441Z,100214.00
2019-06-07T21:30:39.918Z,100220.00
2019-06-07T21:33:09.710Z,100214.00
2019-06-07T21:35:38.895Z,100223.00
2019-06-07T21:38:07.869Z,100222.00
2019-06-07T21:40:36.703Z,100221.00
2019-06-07T21:43:08.732Z,100218.00
2019-06-07T21:45:37.513Z,100221.00
2019-06-07T21:48:07.084Z,100221.00
2019-06-07T21:50:36.497Z,100224.00
2019-06-07T21:53:06.458Z,100229.00
2019-06-07T21:55:35.340Z,100229.00
2019-06-07T21:58:05.235Z,100231.00
2019-06-07T22:01:09.962Z,100229.00
2019-06-07T22:03:39.340Z,100226.00
2019-06-07T22:06:09.552Z,100225.00
2019-06-07T22:08:38.380Z,100229.00
2019-06-07T22:11:08.192Z,100221.00
2019-06-07T22:13:37.294Z,100224.00
2019-06-07T22:16:21.592Z,100234.00
2019-06-07T22:18:36.799Z,100233.00
2019-06-07T22:21:06.415Z,100225.00
2019-06-07T22:23:35.034Z,100222.00
2019-06-07T22:26:04.820Z,100226.00
2019-06-07T22:28:34.679Z,100227.00
2019-06-07T22:31:03.209Z,100225.00
2019-06-07T22:33:32.275Z,100224.00
2019-06-07T22:36:02.015Z,100222.00
2019-06-07T22:38:30.630Z,100229.00
2019-06-07T22:41:01.821Z,100214.00
2019-06-07T22:43:32.850Z,100213.00
2019-06-07T22:46:02.679Z,100212.00
2019-06-07T22:48:31.894Z,100214.00
2019-06-07T22:51:07.195Z,100208.00
2019-06-07T22:53:36.367Z,100208.00
2019-06-07T22:56:13.981Z,100208.00
2019-06-07T22:58:42.548Z,100201.00
2019-06-07T23:01:12.444Z,100195.00
2019-06-07T23:03:41.210Z,100201.00
2019-06-07T23:06:10.465Z,100196.00
2019-06-07T23:08:38.815Z,100192.00
2019-06-07T23:11:07.122Z,100194.00
2019-06-07T23:13:35.394Z,100203.00
2019-06-07T23:16:04.656Z,100201.00
2019-06-07T23:18:33.240Z,100197.00
2019-06-07T23:21:02.514Z,100195.00
2019-06-07T23:23:31.323Z,100197.00
2019-06-07T23:25:59.904Z,100206.00
2019-06-07T23:28:30.324Z,100205.00
2019-06-07T23:30:59.066Z,100213.00
2019-06-07T23:33:28.200Z,100210.00
2019-06-07T23:35:56.818Z,100202.00
2019-06-07T23:38:26.705Z,100201.00
2019-06-07T23:40:55.395Z,100198.00
2019-06-07T23:43:25.299Z,100207.00
2019-06-07T23:45:56.084Z,100208.00
2019-06-07T23:48:25.472Z,100206.00
2019-06-07T23:50:54.459Z,100205.00
2019-06-07T23:53:23.570Z,100206.00
2019-06-07T23:55:52.162Z,100203.00
2019-06-07T23:58:22.145Z,100204.00
